30IN weather

Wigent Airport
Columbia City, Indiana, United States

Public forecast

Using degrees Fahrenheit for public forecast. Weather courtesy of forecast.io.

METAR (pilot weather report)

Closest report is Warsaw Municipal Airport, 17.7 nm (32.8 km) WNW. Retrieved 2019/04/23 17:35 UTC (0 seconds ago):

KASW 231735Z AUTO 31013G17KT 10SM OVC014 08/05 A3003 RMK AO2

TAF (pilot weather forecast)

Closest forecast is Fort Wayne International Airport, 18.3 nm (33.8 km) SE. Retrieved 2019/04/23 12:24 UTC (5 hours ago):

TAF KFWA 231123Z 2312/2412 23012KT P6SM BKN050 FM231400 26014KT P6SM BKN015 FM231800 29014KT P6SM BKN020 FM232200 30013KT P6SM BKN100 FM240300 31004KT P6SM FEW250